Time;durP1;ratioP1;P1;durP2;ratioP2;P2;SDS_P1;SDS_P2;PMS_P1;PMS_P2;Temp;Humidity;BMP_temperature;BMP_pressure;BME280_temperature;BME280_humidity;BME280_pressure;Samples;Min_cycle;Max_cycle;Signal;HPM_P1;HPM_P2
2021/11/23 00:00:25;;;;;;;6.07;5.45;;;2.20;99.90;;;;;;5059071;28;20014;-76
2021/11/23 00:02:50;;;;;;;6.50;5.90;;;2.10;99.90;;;;;;5059375;28;20088;-78
2021/11/23 00:05:16;;;;;;;6.25;5.65;;;2.10;99.90;;;;;;5048596;28;20059;-78
2021/11/23 00:07:42;;;;;;;11.40;5.95;;;2.10;99.90;;;;;;5045273;28;20060;-79
2021/11/23 00:10:08;;;;;;;6.07;5.57;;;2.10;99.90;;;;;;5043316;28;20032;-78
2021/11/23 00:12:34;;;;;;;6.75;6.05;;;2.10;99.90;;;;;;5044827;28;20025;-81
2021/11/23 00:15:00;;;;;;;6.25;5.70;;;2.10;99.90;;;;;;5047077;28;20030;-78
2021/11/23 00:17:26;;;;;;;7.82;7.13;;;2.00;99.90;;;;;;5048428;28;20040;-78
2021/11/23 00:19:51;;;;;;;6.75;6.15;;;2.00;99.90;;;;;;5054076;28;20025;-77
2021/11/23 00:22:17;;;;;;;6.78;6.18;;;1.90;99.90;;;;;;5054445;28;20029;-78
2021/11/23 00:24:43;;;;;;;6.75;5.95;;;1.90;99.90;;;;;;5054968;28;20021;-76
2021/11/23 00:27:09;;;;;;;8.35;6.20;;;1.90;99.90;;;;;;5053604;28;20044;-76
2021/11/23 00:29:35;;;;;;;6.00;5.47;;;1.90;99.90;;;;;;5053587;28;20140;-78
2021/11/23 00:32:02;;;;;;;7.45;6.75;;;1.80;99.90;;;;;;5049097;28;20523;-78
2021/11/23 00:34:28;;;;;;;7.25;6.50;;;1.80;99.90;;;;;;5042608;28;20030;-79
2021/11/23 00:36:54;;;;;;;7.10;6.40;;;1.80;99.90;;;;;;5046696;28;20034;-80
2021/11/23 00:39:20;;;;;;;7.10;6.50;;;1.80;99.90;;;;;;5046541;28;20503;-78
2021/11/23 00:41:48;;;;;;;6.30;5.70;;;1.70;99.90;;;;;;5042348;28;20036;-77
2021/11/23 00:44:19;;;;;;;6.88;6.28;;;1.70;99.90;;;;;;5042265;28;20100;-78
2021/11/23 00:46:46;;;;;;;7.35;6.43;;;1.90;99.90;;;;;;5042696;28;20065;-79
2021/11/23 00:49:14;;;;;;;6.82;6.13;;;1.90;99.90;;;;;;5043292;28;20026;-79
2021/11/23 00:51:40;;;;;;;7.88;6.15;;;1.80;99.90;;;;;;5042592;28;20021;-78
2021/11/23 00:54:06;;;;;;;7.68;6.97;;;1.80;99.90;;;;;;5041607;28;20045;-79
2021/11/23 00:56:32;;;;;;;7.15;6.45;;;1.70;99.90;;;;;;5042912;28;20056;-78
2021/11/23 00:58:58;;;;;;;7.57;6.63;;;1.70;99.90;;;;;;5051194;28;20077;-77
2021/11/23 01:01:23;;;;;;;7.13;6.53;;;1.60;99.90;;;;;;5048690;28;20098;-78
2021/11/23 01:03:49;;;;;;;6.53;5.93;;;1.50;99.90;;;;;;5045472;28;20021;-78
2021/11/23 01:06:15;;;;;;;7.07;6.30;;;1.40;99.90;;;;;;5044608;28;20033;-77
2021/11/23 01:08:41;;;;;;;8.38;6.30;;;1.40;99.90;;;;;;5052646;28;20052;-78
2021/11/23 01:11:09;;;;;;;8.05;7.25;;;1.40;99.90;;;;;;5053641;28;20026;-79
2021/11/23 01:13:35;;;;;;;6.78;6.18;;;1.30;99.90;;;;;;5053553;28;20026;-78
2021/11/23 01:16:01;;;;;;;6.57;5.97;;;1.30;99.90;;;;;;5052639;28;20029;-77
2021/11/23 01:18:27;;;;;;;8.27;7.47;;;1.30;99.90;;;;;;5052359;28;20040;-78
2021/11/23 01:20:53;;;;;;;7.78;7.00;;;1.30;99.90;;;;;;5049824;28;20052;-77
2021/11/23 01:23:19;;;;;;;6.78;6.18;;;1.30;99.90;;;;;;5055934;28;20014;-77
2021/11/23 01:25:45;;;;;;;8.07;7.28;;;1.30;99.90;;;;;;5058039;28;20023;-76
2021/11/23 01:28:11;;;;;;;7.78;6.97;;;1.30;99.90;;;;;;5058389;28;20041;-76
2021/11/23 01:30:36;;;;;;;7.35;6.68;;;1.30;99.90;;;;;;5058105;28;20009;-77
2021/11/23 01:33:02;;;;;;;7.15;6.47;;;1.30;99.90;;;;;;5057079;28;20322;-78
2021/11/23 01:35:28;;;;;;;8.07;7.30;;;1.30;99.90;;;;;;5057180;28;20009;-77
2021/11/23 01:37:53;;;;;;;6.93;6.32;;;1.40;99.90;;;;;;5057063;28;20044;-78
2021/11/23 01:40:19;;;;;;;8.82;6.78;;;1.50;99.90;;;;;;5057280;28;20044;-77
2021/11/23 01:42:48;;;;;;;6.78;6.18;;;1.60;99.90;;;;;;5056378;28;20013;-78
2021/11/23 01:45:14;;;;;;;6.15;5.65;;;1.60;99.90;;;;;;5054205;28;20131;-78
2021/11/23 01:47:41;;;;;;;6.97;6.35;;;1.60;99.90;;;;;;5053966;28;20033;-79
2021/11/23 01:50:09;;;;;;;7.00;6.32;;;1.60;99.90;;;;;;5044560;28;20481;-79
2021/11/23 01:52:35;;;;;;;7.50;6.80;;;1.70;99.90;;;;;;5044195;28;20028;-80
2021/11/23 01:55:02;;;;;;;7.28;6.57;;;1.70;99.90;;;;;;5049058;28;20045;-79
2021/11/23 01:57:28;;;;;;;7.28;6.57;;;1.70;99.90;;;;;;5050405;28;20080;-77
2021/11/23 01:59:53;;;;;;;8.32;6.45;;;1.70;99.90;;;;;;5048137;28;20060;-78
2021/11/23 02:02:19;;;;;;;7.65;6.40;;;1.70;99.90;;;;;;5051788;28;20081;-79
2021/11/23 02:04:45;;;;;;;6.35;5.85;;;1.80;99.90;;;;;;5038110;28;20497;-78
2021/11/23 02:07:13;;;;;;;7.95;6.82;;;1.80;99.90;;;;;;5039704;28;20095;-79
2021/11/23 02:09:39;;;;;;;8.13;7.10;;;1.70;99.90;;;;;;5039389;28;20029;-79
2021/11/23 02:12:05;;;;;;;7.55;6.82;;;1.60;99.90;;;;;;5039665;28;20078;-79
2021/11/23 02:14:31;;;;;;;8.10;7.43;;;1.50;99.90;;;;;;5039638;28;20044;-79
2021/11/23 02:16:57;;;;;;;7.40;6.70;;;1.50;99.90;;;;;;5039801;28;20026;-79
2021/11/23 02:19:23;;;;;;;6.80;6.10;;;1.50;99.90;;;;;;5039207;28;20053;-79
2021/11/23 02:21:49;;;;;;;7.05;6.35;;;1.40;99.90;;;;;;5042758;28;20036;-76
2021/11/23 02:24:15;;;;;;;8.38;7.57;;;1.30;99.90;;;;;;5047104;28;20044;-79
2021/11/23 02:26:40;;;;;;;9.13;8.20;;;1.30;99.90;;;;;;5037965;28;20033;-78
2021/11/23 02:29:06;;;;;;;7.88;7.07;;;1.20;99.90;;;;;;5038145;28;20070;-76
2021/11/23 02:31:32;;;;;;;7.82;7.07;;;1.20;99.90;;;;;;5045923;28;20033;-79
2021/11/23 02:33:57;;;;;;;7.78;6.65;;;1.20;99.90;;;;;;5046354;28;20025;-79
2021/11/23 02:36:23;;;;;;;7.70;6.95;;;1.30;99.90;;;;;;5042425;28;20040;-79
2021/11/23 02:38:49;;;;;;;7.93;7.13;;;1.30;99.90;;;;;;5042926;28;20029;-78
2021/11/23 02:41:16;;;;;;;8.02;7.32;;;1.20;99.90;;;;;;5043269;28;20385;-79
2021/11/23 02:43:42;;;;;;;7.50;6.80;;;1.20;99.90;;;;;;5039754;28;20021;-77
2021/11/23 02:46:09;;;;;;;7.88;7.13;;;1.20;99.90;;;;;;5039788;28;20370;-80
2021/11/23 02:48:36;;;;;;;8.35;7.47;;;1.20;99.90;;;;;;5039668;28;20025;-79
2021/11/23 02:53:28;;;;;;;7.88;7.07;;;1.10;99.90;;;;;;5044891;28;20032;-78
2021/11/23 02:55:54;;;;;;;7.32;6.63;;;1.10;99.90;;;;;;5043242;28;20073;-80
2021/11/23 02:58:19;;;;;;;7.70;7.00;;;1.10;99.90;;;;;;5038242;28;20025;-79
2021/11/23 03:00:45;;;;;;;7.72;6.47;;;1.00;99.90;;;;;;5040051;28;20033;-78
2021/11/23 03:03:11;;;;;;;7.35;6.75;;;1.10;99.90;;;;;;5039711;28;20100;-80
2021/11/23 03:05:37;;;;;;;7.80;6.78;;;1.10;99.90;;;;;;5037795;28;20060;-78
2021/11/23 03:08:03;;;;;;;8.30;7.50;;;1.20;99.90;;;;;;5037089;28;20034;-79
2021/11/23 03:10:31;;;;;;;8.88;8.02;;;1.20;99.90;;;;;;5039419;28;20152;-80
2021/11/23 03:12:59;;;;;;;7.28;6.45;;;1.10;99.90;;;;;;5041044;28;20029;-77
2021/11/23 03:15:26;;;;;;;9.65;7.40;;;1.00;99.90;;;;;;5040880;28;20013;-78
2021/11/23 03:17:52;;;;;;;8.88;7.65;;;1.00;99.90;;;;;;5037980;28;20025;-77
2021/11/23 03:20:20;;;;;;;8.25;7.45;;;0.90;99.90;;;;;;5039178;28;20038;-77
2021/11/23 03:22:46;;;;;;;8.63;7.72;;;0.90;99.90;;;;;;5041259;28;20089;-79
2021/11/23 03:25:13;;;;;;;8.93;8.02;;;0.90;99.90;;;;;;5044394;28;20030;-79
2021/11/23 03:27:38;;;;;;;9.80;8.43;;;1.00;99.90;;;;;;5039500;28;20088;-79
2021/11/23 03:30:06;;;;;;;8.70;7.88;;;0.90;99.90;;;;;;5040891;28;20021;-78
2021/11/23 03:32:32;;;;;;;8.40;7.50;;;0.90;99.90;;;;;;5045143;28;20344;-77
2021/11/23 03:34:57;;;;;;;7.38;6.65;;;0.90;99.90;;;;;;5043429;28;20029;-78
2021/11/23 03:37:25;;;;;;;9.30;8.38;;;0.80;99.90;;;;;;5039462;28;20116;-77
2021/11/23 03:39:53;;;;;;;7.85;7.15;;;0.70;99.90;;;;;;5040478;28;20025;-78
2021/11/23 03:42:18;;;;;;;13.15;7.68;;;0.70;99.90;;;;;;5049018;28;20010;-76
2021/11/23 03:44:45;;;;;;;8.80;7.88;;;0.70;99.90;;;;;;5050392;28;20040;-78
2021/11/23 03:47:11;;;;;;;8.52;7.68;;;0.70;99.90;;;;;;5037321;28;20026;-77
2021/11/23 03:49:37;;;;;;;9.65;8.35;;;0.70;99.90;;;;;;5036938;28;20052;-78
2021/11/23 03:52:04;;;;;;;8.27;7.47;;;0.70;99.90;;;;;;5037914;28;20018;-77
2021/11/23 03:54:30;;;;;;;10.73;8.68;;;0.60;99.90;;;;;;5038587;28;20032;-78
2021/11/23 03:56:55;;;;;;;9.73;8.80;;;0.60;99.90;;;;;;5042213;28;20489;-78
2021/11/23 03:59:21;;;;;;;8.95;7.93;;;0.50;99.90;;;;;;5047492;28;20040;-77
2021/11/23 04:01:47;;;;;;;9.00;8.10;;;0.50;99.90;;;;;;5049446;28;20048;-77
2021/11/23 04:04:13;;;;;;;9.63;8.63;;;0.50;99.90;;;;;;5047637;28;20100;-77
2021/11/23 04:06:38;;;;;;;9.55;8.68;;;0.50;99.90;;;;;;5042048;28;20030;-79
2021/11/23 04:09:04;;;;;;;9.25;8.35;;;0.50;99.90;;;;;;5041353;28;20033;-78
2021/11/23 04:11:30;;;;;;;9.15;8.25;;;0.80;99.90;;;;;;5041457;28;20021;-79
2021/11/23 04:13:56;;;;;;;8.68;7.68;;;0.90;99.90;;;;;;5061459;22;20061;-71
2021/11/23 04:16:23;;;;;;;9.52;8.55;;;1.00;99.90;;;;;;5034926;28;20053;-72
2021/11/23 04:18:50;;;;;;;8.98;8.18;;;1.00;99.90;;;;;;5034761;28;20025;-72
2021/11/23 04:21:16;;;;;;;10.07;7.97;;;0.90;99.90;;;;;;5034647;28;20021;-73
2021/11/23 04:23:42;;;;;;;8.48;7.68;;;0.90;99.90;;;;;;5034733;28;20072;-72
2021/11/23 04:26:07;;;;;;;9.27;8.38;;;0.80;99.90;;;;;;5034611;28;20444;-73
2021/11/23 04:28:33;;;;;;;9.93;8.93;;;0.80;99.90;;;;;;5037338;28;20037;-73
2021/11/23 04:30:58;;;;;;;10.77;8.85;;;0.90;99.90;;;;;;5054537;28;20113;-73
2021/11/23 04:33:24;;;;;;;9.80;8.80;;;0.80;99.90;;;;;;5036817;28;20033;-73
2021/11/23 04:35:49;;;;;;;10.30;9.10;;;0.80;99.90;;;;;;5034593;28;20025;-72
2021/11/23 04:38:15;;;;;;;8.98;8.07;;;0.90;99.90;;;;;;5033424;28;20471;-73
2021/11/23 04:40:41;;;;;;;10.23;9.23;;;0.70;99.90;;;;;;5037999;28;20105;-72
2021/11/23 04:43:07;;;;;;;9.75;7.97;;;0.60;99.90;;;;;;5050397;28;20473;-72
2021/11/23 04:45:33;;;;;;;9.40;8.50;;;0.60;99.90;;;;;;5034572;28;20025;-72
2021/11/23 04:48:00;;;;;;;10.45;9.05;;;0.50;99.90;;;;;;5034162;28;20033;-73
2021/11/23 04:50:26;;;;;;;10.32;9.20;;;0.40;99.90;;;;;;5034142;28;20469;-72
2021/11/23 04:52:52;;;;;;;9.88;8.88;;;0.40;99.90;;;;;;5034054;28;20075;-73
2021/11/23 04:55:17;;;;;;;10.07;8.98;;;0.40;99.90;;;;;;5034245;28;20021;-72
2021/11/23 04:57:43;;;;;;;9.65;8.65;;;0.30;99.90;;;;;;5033915;28;20064;-72
2021/11/23 05:00:11;;;;;;;10.93;9.80;;;0.30;99.90;;;;;;5033690;28;20037;-74
2021/11/23 05:02:37;;;;;;;9.70;8.70;;;0.30;99.90;;;;;;5033928;28;20021;-72
2021/11/23 05:05:04;;;;;;;12.40;9.93;;;0.40;99.90;;;;;;5033697;28;20092;-73
2021/11/23 05:07:30;;;;;;;11.55;9.77;;;0.40;99.90;;;;;;5033651;28;20041;-73
2021/11/23 05:09:55;;;;;;;11.50;9.93;;;0.40;99.90;;;;;;5033717;28;20030;-72
2021/11/23 05:12:21;;;;;;;14.35;9.73;;;0.50;99.90;;;;;;5033639;28;20034;-72
2021/11/23 05:14:47;;;;;;;11.13;10.02;;;0.50;99.90;;;;;;5033410;28;20381;-73
2021/11/23 05:17:12;;;;;;;10.32;9.23;;;0.50;99.90;;;;;;5032338;28;20031;-72
2021/11/23 05:19:38;;;;;;;13.23;10.52;;;0.40;99.90;;;;;;5033606;28;20093;-72
2021/11/23 05:22:04;;;;;;;11.13;9.93;;;0.40;99.90;;;;;;5032086;28;20562;-73
2021/11/23 05:24:30;;;;;;;13.30;10.88;;;0.40;99.90;;;;;;5033757;28;20027;-73
2021/11/23 05:26:56;;;;;;;9.98;8.98;;;0.30;99.90;;;;;;5033970;28;20047;-72
2021/11/23 05:29:21;;;;;;;11.30;10.20;;;0.30;99.90;;;;;;5034922;28;20021;-73
2021/11/23 05:31:47;;;;;;;11.65;10.32;;;0.30;99.90;;;;;;5039319;28;20018;-74
2021/11/23 05:34:12;;;;;;;13.38;12.00;;;0.30;99.90;;;;;;5036661;28;20512;-72
2021/11/23 05:36:38;;;;;;;12.60;10.65;;;0.30;99.90;;;;;;5035889;28;20027;-74
2021/11/23 05:39:05;;;;;;;11.65;9.88;;;0.30;99.90;;;;;;5033668;28;20025;-73
2021/11/23 05:41:30;;;;;;;12.85;11.27;;;0.30;99.90;;;;;;5033186;28;20017;-72
2021/11/23 05:43:56;;;;;;;11.32;10.07;;;0.30;99.90;;;;;;5033864;28;20025;-72
2021/11/23 05:46:22;;;;;;;14.13;10.73;;;0.30;99.90;;;;;;5034916;28;20029;-75
2021/11/23 05:48:48;;;;;;;9.90;8.88;;;0.40;99.90;;;;;;5034183;28;20021;-73
2021/11/23 05:51:13;;;;;;;11.98;10.77;;;0.30;99.90;;;;;;5033662;28;20022;-73
2021/11/23 05:53:39;;;;;;;10.90;9.45;;;0.30;99.90;;;;;;5033474;28;20026;-73
2021/11/23 05:56:05;;;;;;;13.23;11.45;;;0.20;99.90;;;;;;5039168;28;20045;-73
2021/11/23 05:58:31;;;;;;;12.98;11.40;;;0.20;99.90;;;;;;5044386;28;20032;-73
2021/11/23 06:00:57;;;;;;;11.40;10.20;;;0.20;99.90;;;;;;5044734;28;20033;-72
2021/11/23 06:03:22;;;;;;;11.82;10.63;;;0.10;99.90;;;;;;5043367;28;20025;-74
2021/11/23 06:05:48;;;;;;;11.45;9.68;;;0.10;99.90;;;;;;5037785;28;20029;-74
2021/11/23 06:08:14;;;;;;;11.95;10.75;;;0.10;99.90;;;;;;5033662;28;20052;-72
2021/11/23 06:10:40;;;;;;;11.63;10.43;;;0.10;99.90;;;;;;5033105;28;20022;-72
2021/11/23 06:13:06;;;;;;;12.27;10.98;;;0.10;99.90;;;;;;5033837;28;20104;-74
2021/11/23 06:15:32;;;;;;;14.52;12.02;;;0.10;99.90;;;;;;5032133;28;20032;-73
2021/11/23 06:18:02;;;;;;;12.20;10.85;;;0.10;99.90;;;;;;5031176;28;20025;-73
2021/11/23 06:20:29;;;;;;;14.23;12.10;;;0.10;99.90;;;;;;5033226;28;20041;-73
2021/11/23 06:23:02;;;;;;;13.52;12.05;;;0.10;99.90;;;;;;5031767;28;20033;-73
2021/11/23 06:25:28;;;;;;;13.13;11.73;;;0.10;99.90;;;;;;5045414;28;20076;-72
2021/11/23 06:27:54;;;;;;;11.60;10.40;;;0.20;99.90;;;;;;5050617;28;20117;-74
2021/11/23 06:30:21;;;;;;;12.20;10.90;;;0.30;99.90;;;;;;5041726;28;20037;-73
2021/11/23 06:32:47;;;;;;;13.70;10.93;;;0.30;99.90;;;;;;5033147;28;20031;-73
2021/11/23 06:35:13;;;;;;;13.07;11.77;;;0.30;99.90;;;;;;5032970;28;20025;-73
2021/11/23 06:37:38;;;;;;;13.70;11.43;;;0.30;99.90;;;;;;5031404;28;20028;-73
2021/11/23 06:40:06;;;;;;;14.32;12.10;;;0.40;99.90;;;;;;5032865;28;20508;-74
2021/11/23 06:42:32;;;;;;;13.65;12.00;;;0.40;99.90;;;;;;5032691;28;20025;-74
2021/11/23 06:44:58;;;;;;;13.18;11.75;;;0.40;99.90;;;;;;5033190;28;20040;-73
2021/11/23 06:47:24;;;;;;;11.82;10.23;;;0.30;99.90;;;;;;5032516;28;20025;-74
2021/11/23 06:49:51;;;;;;;12.70;11.20;;;0.30;99.90;;;;;;5036595;28;20026;-73
2021/11/23 06:52:18;;;;;;;15.48;12.88;;;0.20;99.90;;;;;;5034600;28;20022;-73
2021/11/23 06:54:47;;;;;;;13.88;12.45;;;0.30;99.90;;;;;;5032438;28;20045;-73
2021/11/23 06:57:12;;;;;;;14.75;12.02;;;0.30;99.90;;;;;;5032832;28;20021;-73
2021/11/23 06:59:39;;;;;;;13.88;12.10;;;0.20;99.90;;;;;;5035405;28;20044;-72
2021/11/23 07:02:06;;;;;;;15.57;11.68;;;0.10;99.90;;;;;;5032543;28;20025;-73
2021/11/23 07:04:33;;;;;;;13.35;11.80;;;0.20;99.90;;;;;;5035037;28;20493;-73
2021/11/23 07:06:58;;;;;;;14.52;12.32;;;0.20;99.90;;;;;;5048163;28;20032;-73
2021/11/23 07:09:24;;;;;;;14.02;12.13;;;0.20;99.90;;;;;;5042416;28;20084;-73
2021/11/23 07:11:50;;;;;;;13.15;11.75;;;0.20;99.90;;;;;;5044785;28;20036;-72
2021/11/23 07:14:16;;;;;;;16.20;11.85;;;0.30;99.90;;;;;;5052835;28;20040;-73
2021/11/23 07:16:42;;;;;;;16.38;11.88;;;0.30;99.90;;;;;;5043693;28;20045;-73
2021/11/23 07:19:07;;;;;;;14.95;13.30;;;0.30;99.90;;;;;;5034286;28;20017;-72
2021/11/23 07:21:34;;;;;;;14.55;11.85;;;0.30;99.90;;;;;;5033463;28;20491;-72
2021/11/23 07:23:59;;;;;;;14.70;11.75;;;0.30;99.90;;;;;;5031939;28;20156;-74
2021/11/23 07:26:26;;;;;;;15.57;13.63;;;0.40;99.90;;;;;;5033295;28;20053;-74
2021/11/23 07:28:52;;;;;;;14.52;11.80;;;0.40;99.90;;;;;;5036196;28;20022;-72
2021/11/23 07:31:18;;;;;;;16.85;12.05;;;0.50;99.90;;;;;;5038084;28;20385;-72
2021/11/23 07:33:43;;;;;;;14.18;10.95;;;0.70;99.90;;;;;;5036257;28;20072;-72
2021/11/23 07:36:09;;;;;;;12.88;11.52;;;0.80;99.90;;;;;;5036388;28;20029;-75
2021/11/23 07:38:35;;;;;;;13.63;12.23;;;0.80;99.90;;;;;;5036990;28;20378;-73
2021/11/23 07:41:00;;;;;;;13.43;11.93;;;0.90;99.90;;;;;;5036766;28;20026;-73
2021/11/23 07:43:26;;;;;;;14.48;11.80;;;0.80;99.90;;;;;;5035567;28;20025;-73
2021/11/23 07:45:51;;;;;;;13.48;11.27;;;0.80;99.90;;;;;;5036276;28;20104;-73
2021/11/23 07:48:17;;;;;;;14.35;11.38;;;0.90;99.90;;;;;;5035894;28;20060;-72
2021/11/23 07:50:43;;;;;;;12.23;11.02;;;0.90;99.90;;;;;;5036859;28;20025;-73
2021/11/23 07:53:09;;;;;;;15.93;11.57;;;1.00;99.90;;;;;;5036546;28;20378;-73
2021/11/23 07:55:35;;;;;;;12.55;11.35;;;1.10;99.90;;;;;;5042861;28;20017;-73
2021/11/23 07:58:01;;;;;;;11.85;10.65;;;1.20;99.90;;;;;;5042020;28;20026;-72
2021/11/23 08:00:28;;;;;;;15.30;11.95;;;1.10;99.90;;;;;;5037004;28;20051;-73
2021/11/23 08:02:54;;;;;;;12.25;11.05;;;1.20;99.90;;;;;;5036135;28;20092;-74
2021/11/23 08:05:20;;;;;;;13.48;11.10;;;1.40;99.90;;;;;;5035755;28;20550;-74
2021/11/23 08:07:46;;;;;;;13.13;10.98;;;1.40;99.90;;;;;;5036058;28;20392;-72
2021/11/23 08:10:11;;;;;;;11.57;10.38;;;1.50;99.90;;;;;;5035683;28;20100;-71
2021/11/23 08:12:37;;;;;;;11.95;10.73;;;1.40;99.90;;;;;;5035478;28;20104;-73
2021/11/23 08:15:04;;;;;;;13.23;11.30;;;1.40;99.90;;;;;;5035562;28;20036;-73
2021/11/23 08:17:30;;;;;;;11.63;10.43;;;1.50;99.90;;;;;;5037359;28;20029;-72
2021/11/23 08:19:57;;;;;;;11.57;10.20;;;1.60;99.90;;;;;;5037674;28;20032;-73
2021/11/23 08:22:22;;;;;;;11.85;10.65;;;1.70;99.90;;;;;;5038279;28;20155;-72
2021/11/23 08:24:48;;;;;;;12.93;10.63;;;1.80;99.90;;;;;;5035349;28;20430;-71
2021/11/23 08:27:13;;;;;;;11.95;10.10;;;1.80;99.90;;;;;;5035341;28;20511;-74
2021/11/23 08:29:39;;;;;;;14.02;10.65;;;1.80;99.90;;;;;;5036714;28;20509;-73
2021/11/23 08:32:05;;;;;;;12.95;10.35;;;1.90;99.90;;;;;;5037059;28;20030;-73
2021/11/23 08:34:31;;;;;;;11.93;10.73;;;2.00;99.90;;;;;;5035794;28;20022;-73
2021/11/23 08:36:56;;;;;;;11.73;10.43;;;2.00;99.90;;;;;;5037426;28;20037;-72
2021/11/23 08:39:23;;;;;;;11.93;10.70;;;1.90;99.90;;;;;;5037322;28;20084;-73
2021/11/23 08:41:49;;;;;;;11.95;10.73;;;1.80;99.90;;;;;;5035579;28;20033;-73
2021/11/23 08:44:15;;;;;;;11.70;10.25;;;1.80;99.90;;;;;;5035720;28;20033;-73
2021/11/23 08:46:41;;;;;;;14.68;10.82;;;1.80;99.90;;;;;;5035689;28;20105;-73
2021/11/23 08:49:07;;;;;;;12.10;10.68;;;2.00;99.90;;;;;;5035431;28;20092;-73
2021/11/23 08:51:37;;;;;;;11.25;9.85;;;2.10;99.90;;;;;;5036032;28;20040;-73
2021/11/23 08:54:04;;;;;;;11.95;10.07;;;2.20;99.90;;;;;;5035881;28;20014;-71
2021/11/23 08:56:35;;;;;;;12.27;9.75;;;2.10;99.90;;;;;;5036127;28;20026;-73
2021/11/23 08:59:03;;;;;;;11.27;10.18;;;2.20;99.90;;;;;;5034687;28;20108;-73
2021/11/23 09:01:30;;;;;;;12.98;9.55;;;2.10;99.90;;;;;;5035906;28;20025;-72
2021/11/23 09:03:56;;;;;;;9.90;8.95;;;2.20;99.90;;;;;;5035328;28;20512;-74
2021/11/23 09:06:24;;;;;;;9.75;8.85;;;2.30;99.90;;;;;;5036036;28;20026;-72
2021/11/23 09:08:58;;;;;;;11.70;10.50;;;2.40;99.90;;;;;;5035313;28;20017;-73
2021/11/23 09:11:24;;;;;;;11.88;9.52;;;2.20;99.90;;;;;;5035315;28;20103;-72
2021/11/23 09:13:51;;;;;;;11.30;10.18;;;2.40;99.90;;;;;;5037326;28;20043;-72
2021/11/23 09:16:16;;;;;;;10.65;9.55;;;2.50;99.90;;;;;;5052173;28;20025;-73
2021/11/23 09:18:42;;;;;;;10.80;9.80;;;2.50;99.90;;;;;;5036716;28;20075;-74
2021/11/23 09:21:07;;;;;;;9.43;8.52;;;2.50;99.90;;;;;;5035404;28;20030;-74
2021/11/23 09:23:33;;;;;;;12.90;10.60;;;2.50;99.90;;;;;;5036055;28;20029;-74
2021/11/23 09:25:59;;;;;;;13.85;10.27;;;2.60;99.90;;;;;;5038831;28;20037;-74
2021/11/23 09:28:24;;;;;;;10.52;9.57;;;2.60;99.90;;;;;;5038350;28;20025;-73
2021/11/23 09:30:50;;;;;;;13.63;9.93;;;2.50;99.90;;;;;;5035882;28;20017;-73
2021/11/23 09:33:16;;;;;;;11.27;10.20;;;2.40;99.90;;;;;;5035379;28;20104;-72
2021/11/23 09:35:42;;;;;;;12.48;10.63;;;2.50;99.90;;;;;;5034941;28;20032;-73
2021/11/23 09:38:08;;;;;;;11.13;10.02;;;2.60;99.90;;;;;;5036052;28;20026;-72
2021/11/23 09:40:34;;;;;;;11.93;9.68;;;2.40;99.90;;;;;;5035676;28;20029;-73
2021/11/23 09:43:00;;;;;;;13.77;10.50;;;2.60;99.90;;;;;;5036569;28;20037;-73
2021/11/23 09:45:26;;;;;;;11.35;10.15;;;2.70;99.90;;;;;;5035729;28;20025;-73
2021/11/23 09:47:52;;;;;;;11.63;9.98;;;2.90;99.90;;;;;;5034450;28;20094;-73
2021/11/23 09:50:18;;;;;;;12.98;10.80;;;3.00;99.90;;;;;;5034448;28;20021;-73
2021/11/23 09:52:44;;;;;;;13.85;10.05;;;2.80;99.90;;;;;;5034584;28;20022;-74
2021/11/23 09:55:12;;;;;;;11.35;10.25;;;2.70;99.90;;;;;;5034568;28;20099;-73
2021/11/23 09:57:38;;;;;;;11.25;9.55;;;2.80;99.90;;;;;;5035832;28;20025;-73
2021/11/23 10:00:23;;;;;;;12.27;10.60;;;3.10;99.90;;;;;;5034825;28;20032;-74
2021/11/23 10:02:48;;;;;;;10.63;9.48;;;3.00;99.90;;;;;;5034752;28;20032;-73
2021/11/23 10:05:15;;;;;;;13.75;10.57;;;2.90;99.90;;;;;;5036143;28;20385;-73
2021/11/23 10:07:44;;;;;;;13.75;10.15;;;2.90;99.90;;;;;;5036747;28;20036;-73
2021/11/23 10:10:14;;;;;;;10.70;9.70;;;2.80;99.90;;;;;;5051586;28;20025;-73
2021/11/23 10:12:39;;;;;;;13.60;10.80;;;3.00;99.90;;;;;;5047527;28;20025;-73
2021/11/23 10:15:16;;;;;;;12.95;9.98;;;3.10;99.90;;;;;;5061405;22;20431;-79
2021/11/23 10:17:46;;;;;;;11.90;10.15;;;3.20;99.90;;;;;;5039972;28;20477;-80
2021/11/23 10:20:24;;;;;;;11.07;10.07;;;3.40;99.90;;;;;;5041683;28;20107;-80
2021/11/23 10:22:50;;;;;;;10.45;9.45;;;3.50;99.90;;;;;;5044552;28;20025;-79
2021/11/23 10:25:15;;;;;;;11.75;10.27;;;3.40;99.90;;;;;;5049420;28;20040;-81
2021/11/23 10:27:42;;;;;;;10.30;9.20;;;3.40;99.90;;;;;;5039708;28;20030;-79
2021/11/23 10:30:08;;;;;;;11.52;10.20;;;3.30;99.90;;;;;;5042137;28;20024;-80
2021/11/23 10:32:48;;;;;;;11.65;10.45;;;3.40;99.90;;;;;;5040937;28;20022;-80
2021/11/23 10:35:17;;;;;;;11.27;10.07;;;3.40;99.90;;;;;;5042407;28;20057;-80
2021/11/23 10:37:44;;;;;;;11.25;9.85;;;3.60;99.90;;;;;;5041405;28;20022;-80
2021/11/23 10:40:17;;;;;;;10.55;9.43;;;3.60;99.90;;;;;;5039750;28;20078;-80
2021/11/23 10:42:45;;;;;;;10.68;9.50;;;3.70;99.90;;;;;;5039825;28;20108;-78
2021/11/23 10:45:11;;;;;;;9.70;8.70;;;3.70;99.90;;;;;;5054025;28;20014;-84
2021/11/23 10:47:39;;;;;;;11.68;8.65;;;4.00;99.90;;;;;;5056477;28;20052;-81
2021/11/23 10:50:11;;;;;;;9.38;8.20;;;4.20;99.90;;;;;;5054261;28;20081;-79
2021/11/23 10:52:41;;;;;;;9.00;8.13;;;4.30;99.90;;;;;;5035332;28;20041;-78
2021/11/23 10:55:24;;;;;;;11.75;10.50;;;4.50;99.90;;;;;;5050176;28;20025;-78
2021/11/23 10:57:52;;;;;;;9.45;8.55;;;4.50;99.90;;;;;;5042686;28;20030;-79
2021/11/23 11:00:20;;;;;;;9.27;8.15;;;4.40;99.90;;;;;;5040448;28;20028;-81
2021/11/23 11:02:46;;;;;;;13.82;8.00;;;4.30;99.90;;;;;;5041531;28;20060;-81
2021/11/23 11:05:15;;;;;;;11.90;8.63;;;4.30;99.90;;;;;;5043984;28;20022;-80
2021/11/23 11:07:43;;;;;;;9.95;8.85;;;4.50;99.90;;;;;;5053602;28;20029;-80
2021/11/23 11:10:10;;;;;;;8.32;7.32;;;4.50;99.90;;;;;;5061164;28;20073;-80
2021/11/23 11:12:36;;;;;;;9.48;7.72;;;4.40;99.90;;;;;;5047363;28;20060;-79
2021/11/23 11:15:05;;;;;;;5.70;5.20;;;4.70;99.90;;;;;;5052435;28;20444;-78
2021/11/23 11:17:31;;;;;;;5.20;4.80;;;5.00;99.90;;;;;;5053512;28;20081;-80
2021/11/23 11:19:59;;;;;;;9.30;7.18;;;5.20;99.90;;;;;;5051803;28;20056;-80
2021/11/23 11:22:26;;;;;;;10.02;7.45;;;5.30;99.90;;;;;;5052233;28;20100;-80
2021/11/23 11:25:14;;;;;;;6.68;5.95;;;5.30;99.90;;;;;;5045427;28;20113;-79
2021/11/23 11:27:44;;;;;;;6.85;6.20;;;5.30;99.90;;;;;;5045896;28;20036;-79
2021/11/23 11:30:29;;;;;;;6.40;5.80;;;5.40;99.90;;;;;;5049005;28;20025;-80
2021/11/23 11:33:11;;;;;;;7.10;5.93;;;5.60;99.90;;;;;;5050928;28;20025;-79
2021/11/23 11:35:49;;;;;;;6.93;5.88;;;5.60;99.90;;;;;;5050156;28;20025;-79
2021/11/23 11:38:27;;;;;;;5.78;5.18;;;5.70;99.90;;;;;;5048883;28;20083;-79
2021/11/23 11:41:02;;;;;;;6.03;5.47;;;5.80;99.90;;;;;;5049374;28;20025;-80
2021/11/23 11:43:32;;;;;;;6.85;6.25;;;5.90;99.90;;;;;;5052144;28;20025;-80
2021/11/23 11:45:58;;;;;;;5.55;5.03;;;5.90;99.90;;;;;;5050369;28;20026;-78
2021/11/23 11:48:36;;;;;;;5.55;5.05;;;5.90;99.90;;;;;;5049983;28;20026;-78
2021/11/23 11:51:41;;;;;;;5.40;4.90;;;5.90;99.90;;;;;;5050361;28;20037;-78
2021/11/23 11:54:21;;;;;;;6.00;5.20;;;5.90;99.90;;;;;;5053407;28;20404;-80
2021/11/23 11:56:50;;;;;;;6.15;5.57;;;5.90;99.90;;;;;;5053855;28;20041;-78
2021/11/23 11:59:16;;;;;;;5.57;5.07;;;5.90;99.90;;;;;;5054670;28;20022;-79
2021/11/23 12:01:49;;;;;;;7.07;5.65;;;6.00;99.90;;;;;;5053940;28;20037;-78
2021/11/23 12:04:17;;;;;;;8.80;6.47;;;6.10;99.90;;;;;;5055544;28;20072;-80
2021/11/23 12:06:56;;;;;;;5.60;5.07;;;6.00;99.90;;;;;;5052461;28;20072;-78
2021/11/23 12:09:29;;;;;;;6.00;4.80;;;6.10;99.90;;;;;;5047383;28;20085;-79
2021/11/23 12:11:59;;;;;;;5.72;4.72;;;6.10;99.90;;;;;;5044973;28;20036;-78
2021/11/23 12:14:29;;;;;;;5.00;4.57;;;6.00;99.90;;;;;;5046677;28;20013;-80
2021/11/23 12:17:06;;;;;;;5.57;4.82;;;6.10;99.90;;;;;;5056205;28;20029;-79
2021/11/23 12:19:54;;;;;;;7.57;5.60;;;6.00;99.90;;;;;;5048664;28;20029;-80
2021/11/23 12:22:22;;;;;;;5.57;4.93;;;6.10;99.90;;;;;;5051439;28;20021;-79
2021/11/23 12:24:53;;;;;;;5.22;4.60;;;6.20;99.90;;;;;;5053968;28;20037;-79
2021/11/23 12:27:19;;;;;;;;;;;6.20;99.90;;;;;;5053243;28;20053;-80
2021/11/23 12:29:47;;;;;;;5.85;5.25;;;6.30;99.90;;;;;;5051888;28;19905;-80
2021/11/23 12:32:13;;;;;;;8.73;6.50;;;6.20;99.90;;;;;;5051597;28;20033;-82
2021/11/23 12:34:50;;;;;;;6.70;5.80;;;6.20;99.90;;;;;;5052088;28;20073;-80
2021/11/23 12:37:16;;;;;;;6.90;6.30;;;6.10;99.90;;;;;;5050279;28;20026;-80
2021/11/23 12:39:42;;;;;;;7.13;5.82;;;6.10;99.90;;;;;;5046688;28;20449;-80
2021/11/23 12:42:10;;;;;;;6.03;5.53;;;6.00;99.90;;;;;;5051576;28;20033;-79
2021/11/23 12:44:38;;;;;;;6.07;5.50;;;6.10;99.90;;;;;;5057601;28;20094;-79
2021/11/23 12:47:13;;;;;;;7.32;6.05;;;6.20;99.90;;;;;;5056820;28;20021;-80
2021/11/23 12:49:41;;;;;;;6.25;5.75;;;6.20;99.90;;;;;;5058042;28;20075;-80